Chico, California
Current Conditions -  °F | °C
As of 9:35 PM on Sunday 19 Oct 2014 (Local Time) from KCIC Reporting Station
Clear Clear  
Wind Chill: 72°   Ceiling: Unl
Heat Index: 72°   Visibility: 10mi
Dew Point: 46°   Wind: 8mph
Humidity: 41%   Direction: 120°ESE
Pressure: 29.83"   Gusts: NA
Location:  39.73°N, 121.84°W
Report Text: KCIC 200435Z AUTO 12007KT 10SM CLR 22/08 A2983 RMK AO1
Loading
Personal Weather Stations






























Interactive Weather Map
Tropical Storm Tracking
New forecast layout! Learn more

10-Day Weather Forecast

Advertisements
Track Severe Weather on mobile